Warren, Ohio
Current Conditions -  °F | °C
As of 9:51 PM on Monday 26 Jan 2015 (Local Time) from KYNG Reporting Station
Light Snow Light Snow  
Wind Chill: 11°   Ceiling: 1100
Heat Index: 20°   Visibility: 5mi
Dew Point: 16°   Wind: 7mph
Humidity: 85%   Direction: 310°NW
Pressure: 29.85"   Gusts: NA
Location:  41.24°N, 80.81°W
Report Text: KYNG 270251Z 31006KT 5SM -SN BR OVC011 M07/M09 A2985 RMK AO2 SLP127 P0000 60000 T10671089 51006
Loading
Personal Weather Stations






























Interactive Weather Map New forecast layout! Learn more

10-Day Weather Forecast

Advertisements
Track Severe Weather on mobile